createdAt,value
2017-10-30T00:00:19.734Z,9.33
2017-10-30T00:02:48.012Z,3.80
2017-10-30T00:05:16.245Z,7.57
2017-10-30T00:07:43.725Z,9.80
2017-10-30T00:10:11.184Z,6.53
2017-10-30T00:12:39.425Z,7.80
2017-10-30T00:15:06.888Z,10.73
2017-10-30T00:17:34.384Z,4.47
2017-10-30T00:20:01.866Z,7.20
2017-10-30T00:22:29.337Z,5.73
2017-10-30T00:24:57.633Z,5.47
2017-10-30T00:27:25.147Z,7.50
2017-10-30T00:29:52.632Z,5.45
2017-10-30T00:32:20.104Z,13.37
2017-10-30T00:34:47.581Z,7.50
2017-10-30T00:37:15.048Z,6.93
2017-10-30T00:39:42.533Z,7.62
2017-10-30T00:42:10.773Z,5.70
2017-10-30T00:44:38.251Z,9.67
2017-10-30T00:47:05.722Z,6.63
2017-10-30T00:49:33.988Z,5.53
2017-10-30T00:52:01.477Z,10.10
2017-10-30T00:54:28.948Z,6.90
2017-10-30T00:56:56.424Z,6.63
2017-10-30T00:59:23.916Z,9.00
2017-10-30T01:01:52.165Z,7.93
2017-10-30T01:04:19.692Z,6.23
2017-10-30T01:06:47.204Z,8.00
2017-10-30T01:09:15.461Z,11.37
2017-10-30T01:11:42.949Z,7.30
2017-10-30T01:14:11.188Z,6.63
2017-10-30T01:16:38.682Z,5.30
2017-10-30T01:19:06.937Z,4.80
2017-10-30T01:21:34.421Z,15.00
2017-10-30T01:24:02.667Z,11.20
2017-10-30T01:26:30.168Z,6.57
2017-10-30T01:28:58.425Z,6.53
2017-10-30T01:31:25.928Z,12.07
2017-10-30T01:33:53.947Z,7.30
2017-10-30T01:36:21.432Z,7.27
2017-10-30T01:38:49.681Z,5.77
2017-10-30T01:41:18.692Z,9.80
2017-10-30T01:43:52.959Z,6.80
2017-10-30T01:46:20.452Z,6.37
2017-10-30T01:48:48.035Z,6.00
2017-10-30T01:51:16.276Z,4.93
2017-10-30T01:53:43.762Z,8.37
2017-10-30T01:56:12.012Z,5.57
2017-10-30T01:58:39.484Z,7.70
2017-10-30T02:01:06.972Z,6.50
2017-10-30T02:03:34.453Z,5.43
2017-10-30T02:06:01.946Z,9.70
2017-10-30T02:08:29.424Z,7.20
2017-10-30T02:10:57.678Z,4.50
2017-10-30T02:13:25.164Z,8.57
2017-10-30T02:15:53.413Z,9.07
2017-10-30T02:18:21.337Z,4.60
2017-10-30T02:20:48.844Z,5.87
2017-10-30T02:23:16.320Z,5.47
2017-10-30T02:25:44.557Z,5.90
2017-10-30T02:28:12.044Z,5.70
2017-10-30T02:30:39.510Z,6.00
2017-10-30T02:33:07.752Z,6.13
2017-10-30T02:35:35.216Z,5.97
2017-10-30T02:38:03.473Z,6.17
2017-10-30T02:40:30.946Z,6.30
2017-10-30T02:42:58.429Z,6.03
2017-10-30T02:45:26.460Z,5.47
2017-10-30T02:47:53.948Z,8.40
2017-10-30T02:50:21.408Z,6.67
2017-10-30T02:52:48.905Z,5.47
2017-10-30T02:55:16.385Z,6.67
2017-10-30T02:57:43.886Z,6.37
2017-10-30T03:00:11.349Z,6.30
2017-10-30T03:02:39.591Z,5.20
2017-10-30T03:05:07.051Z,8.87
2017-10-30T03:07:34.519Z,4.53
2017-10-30T03:10:02.020Z,8.50
2017-10-30T03:12:29.507Z,8.60
2017-10-30T03:14:57.013Z,7.50
2017-10-30T03:17:25.245Z,4.13
2017-10-30T03:19:52.737Z,4.73
2017-10-30T03:22:20.983Z,10.50
2017-10-30T03:24:48.479Z,6.12
2017-10-30T03:27:16.720Z,7.63
2017-10-30T03:29:44.251Z,6.20
2017-10-30T03:32:12.967Z,3.43
2017-10-30T03:34:40.461Z,6.27
2017-10-30T03:37:08.704Z,4.93
2017-10-30T03:39:36.180Z,8.23
2017-10-30T03:42:03.641Z,4.53
2017-10-30T03:44:31.129Z,5.17
2017-10-30T03:46:58.610Z,11.07
2017-10-30T03:49:26.129Z,5.57
2017-10-30T03:51:54.375Z,10.50
2017-10-30T03:54:21.846Z,9.73
2017-10-30T03:56:50.105Z,7.13
2017-10-30T03:59:17.564Z,7.13
2017-10-30T04:01:45.058Z,5.40
2017-10-30T04:04:13.286Z,6.23
2017-10-30T04:06:40.773Z,6.13
2017-10-30T04:09:08.234Z,3.70
2017-10-30T04:11:36.530Z,8.40
2017-10-30T04:14:04.761Z,6.77
2017-10-30T04:16:32.256Z,8.20
2017-10-30T04:19:00.496Z,7.57
2017-10-30T04:21:28.076Z,6.53
2017-10-30T04:23:55.560Z,5.80
2017-10-30T04:26:23.060Z,7.10
2017-10-30T04:28:50.545Z,5.73
2017-10-30T04:31:18.108Z,6.23
2017-10-30T04:33:47.114Z,6.00
2017-10-30T04:36:15.361Z,5.93
2017-10-30T04:38:43.390Z,9.13
2017-10-30T04:41:10.877Z,13.37
2017-10-30T04:43:38.361Z,9.10
2017-10-30T04:46:05.866Z,5.10
2017-10-30T04:48:34.262Z,6.00
2017-10-30T04:51:01.754Z,7.37
2017-10-30T04:53:29.244Z,7.37
2017-10-30T04:55:57.493Z,6.70
2017-10-30T04:58:24.975Z,6.20
2017-10-30T05:00:53.249Z,13.70
2017-10-30T05:03:21.491Z,6.90
2017-10-30T05:05:48.963Z,9.93
2017-10-30T05:08:16.435Z,6.13
2017-10-30T05:10:44.802Z,5.67
2017-10-30T05:13:12.288Z,7.33
2017-10-30T05:15:39.762Z,8.20
2017-10-30T05:18:07.240Z,6.60
2017-10-30T05:20:34.715Z,9.03
2017-10-30T05:23:02.977Z,10.73
2017-10-30T05:25:30.585Z,9.20
2017-10-30T05:27:58.858Z,5.50
2017-10-30T05:30:27.101Z,9.07
2017-10-30T05:32:54.577Z,6.90
2017-10-30T05:35:22.057Z,9.40
2017-10-30T05:37:50.300Z,7.20
2017-10-30T05:40:18.728Z,9.63
2017-10-30T05:42:46.250Z,11.60
2017-10-30T05:45:14.502Z,10.03
2017-10-30T05:47:42.001Z,7.33
2017-10-30T05:50:10.227Z,6.60
2017-10-30T05:52:37.724Z,9.50
2017-10-30T05:55:05.965Z,6.40
2017-10-30T05:57:33.445Z,10.47
2017-10-30T06:00:02.060Z,10.20
2017-10-30T06:02:29.525Z,7.83
2017-10-30T06:04:57.026Z,7.77
2017-10-30T06:07:24.491Z,12.73
2017-10-30T06:09:51.990Z,14.00
2017-10-30T06:12:19.495Z,10.67
2017-10-30T06:14:46.972Z,12.83
2017-10-30T06:17:14.476Z,10.83
2017-10-30T06:19:42.341Z,16.20
2017-10-30T06:22:09.822Z,10.13
2017-10-30T06:24:37.296Z,12.83
2017-10-30T06:27:04.776Z,17.57
2017-10-30T06:29:33.047Z,9.33
2017-10-30T06:32:00.529Z,17.23
2017-10-30T06:34:28.785Z,12.10
2017-10-30T06:36:57.030Z,10.10
2017-10-30T06:39:24.517Z,15.60
2017-10-30T06:41:52.801Z,12.33
2017-10-30T06:44:20.290Z,9.57
2017-10-30T06:46:47.763Z,11.13
2017-10-30T06:49:15.257Z,15.60
2017-10-30T06:51:43.649Z,14.32
2017-10-30T06:54:11.144Z,18.90
2017-10-30T06:56:38.605Z,10.93
2017-10-30T06:59:06.089Z,16.77
2017-10-30T07:01:33.562Z,14.17
2017-10-30T07:04:01.300Z,14.77
2017-10-30T07:06:28.771Z,11.67
2017-10-30T07:08:56.265Z,16.17
2017-10-30T07:11:23.738Z,9.03
2017-10-30T07:13:51.989Z,10.57
2017-10-30T07:16:20.068Z,16.70
2017-10-30T07:18:47.543Z,16.63
2017-10-30T07:21:15.043Z,13.00
2017-10-30T07:23:42.530Z,11.13
2017-10-30T07:26:10.035Z,12.63
2017-10-30T07:28:37.535Z,13.57
2017-10-30T07:31:05.052Z,12.00
2017-10-30T07:33:32.525Z,12.87
2017-10-30T07:36:00.032Z,21.00
2017-10-30T07:38:27.503Z,17.90
2017-10-30T07:40:55.740Z,9.63
2017-10-30T07:43:23.226Z,12.03
2017-10-30T07:45:50.705Z,14.70
2017-10-30T07:48:18.957Z,13.93
2017-10-30T07:50:46.553Z,12.90
2017-10-30T07:53:14.024Z,18.37
2017-10-30T07:55:41.521Z,16.67
2017-10-30T07:58:09.011Z,23.50
2017-10-30T08:00:38.106Z,14.50
2017-10-30T08:03:06.391Z,16.03
2017-10-30T08:05:33.918Z,8.50
2017-10-30T08:08:01.410Z,10.73
2017-10-30T08:10:28.885Z,16.63
2017-10-30T08:12:56.385Z,9.03
2017-10-30T08:15:25.374Z,13.60
2017-10-30T08:17:53.408Z,10.23
2017-10-30T08:20:20.888Z,12.47
2017-10-30T08:22:48.389Z,14.60
2017-10-30T08:25:16.628Z,15.60
2017-10-30T08:27:44.116Z,16.07
2017-10-30T08:30:12.386Z,18.23
2017-10-30T08:32:39.873Z,15.50
2017-10-30T08:35:07.384Z,15.50
2017-10-30T08:37:34.856Z,12.00
2017-10-30T08:40:02.346Z,15.73
2017-10-30T08:42:29.830Z,11.70
2017-10-30T08:44:57.326Z,19.73
2017-10-30T08:47:24.823Z,11.30
2017-10-30T08:49:52.308Z,19.73
2017-10-30T08:52:19.814Z,12.80
2017-10-30T08:54:48.070Z,11.97
2017-10-30T08:57:15.554Z,16.02
2017-10-30T08:59:44.621Z,12.93
2017-10-30T09:02:12.101Z,19.30
2017-10-30T09:04:40.358Z,15.00
2017-10-30T09:07:07.832Z,14.90
2017-10-30T09:09:35.444Z,15.60
2017-10-30T09:12:02.908Z,13.67
2017-10-30T09:14:30.417Z,11.63
2017-10-30T09:16:58.658Z,15.03
2017-10-30T09:19:26.132Z,12.93
2017-10-30T09:21:53.604Z,10.13
2017-10-30T09:24:21.855Z,12.77
2017-10-30T09:26:49.333Z,12.80
2017-10-30T09:29:16.822Z,13.10
2017-10-30T09:31:45.217Z,9.70
2017-10-30T09:34:12.709Z,14.33
2017-10-30T09:36:40.185Z,13.90
2017-10-30T09:39:07.684Z,17.37
2017-10-30T09:41:35.161Z,10.95
2017-10-30T09:44:02.638Z,15.57
2017-10-30T09:46:30.136Z,18.07
2017-10-30T09:48:58.421Z,13.13
2017-10-30T09:51:25.888Z,14.30
2017-10-30T09:53:53.376Z,13.50
2017-10-30T09:56:20.868Z,20.53
2017-10-30T09:58:49.109Z,13.03
2017-10-30T10:01:16.602Z,14.63
2017-10-30T10:03:44.849Z,9.33
2017-10-30T10:06:12.330Z,8.77
2017-10-30T10:08:39.822Z,10.33
2017-10-30T10:11:07.325Z,13.13
2017-10-30T10:13:34.804Z,9.73
2017-10-30T10:16:02.285Z,14.03
2017-10-30T10:18:30.534Z,13.67
2017-10-30T10:20:58.031Z,10.30
2017-10-30T10:23:25.500Z,16.93
2017-10-30T10:25:52.999Z,10.70
2017-10-30T10:28:21.473Z,15.43
2017-10-30T10:30:50.753Z,8.23
2017-10-30T10:33:18.238Z,24.83
2017-10-30T10:35:45.743Z,9.50
2017-10-30T10:38:13.235Z,7.43
2017-10-30T10:40:40.728Z,14.00
2017-10-30T10:43:08.193Z,9.13
2017-10-30T10:45:36.441Z,8.13
2017-10-30T10:48:03.925Z,25.40
2017-10-30T10:50:32.201Z,11.63
2017-10-30T10:53:01.090Z,9.43
2017-10-30T10:55:29.337Z,7.43
2017-10-30T10:57:56.812Z,11.73
2017-10-30T11:00:24.317Z,14.50
2017-10-30T11:02:51.791Z,5.80
2017-10-30T11:05:19.464Z,10.57
2017-10-30T11:07:46.950Z,8.50
2017-10-30T11:10:14.440Z,7.07
2017-10-30T11:12:41.937Z,15.73
2017-10-30T11:15:09.420Z,12.00
2017-10-30T11:17:36.912Z,7.30
2017-10-30T11:20:04.368Z,12.07
2017-10-30T11:22:31.878Z,10.07
2017-10-30T11:24:59.359Z,6.80
2017-10-30T11:27:26.829Z,9.40
2017-10-30T11:29:55.069Z,8.63
2017-10-30T11:32:22.554Z,9.30
2017-10-30T11:34:50.030Z,11.23
2017-10-30T11:37:18.520Z,9.00
2017-10-30T11:39:45.985Z,8.53
2017-10-30T11:42:13.486Z,7.32
2017-10-30T11:44:40.984Z,8.33
2017-10-30T11:47:09.230Z,8.47
2017-10-30T11:49:38.206Z,12.80
2017-10-30T11:52:05.713Z,11.83
2017-10-30T11:54:33.960Z,12.33
2017-10-30T11:57:01.469Z,8.67
2017-10-30T11:59:28.971Z,14.50
2017-10-30T12:01:56.447Z,9.83
2017-10-30T12:04:24.699Z,10.90
2017-10-30T12:06:52.171Z,14.00
2017-10-30T12:09:20.438Z,13.63
2017-10-30T12:11:49.455Z,13.97
2017-10-30T12:14:17.686Z,9.97
2017-10-30T12:16:45.173Z,11.43
2017-10-30T12:19:12.651Z,7.13
2017-10-30T12:21:40.913Z,8.50
2017-10-30T12:24:08.482Z,8.97
2017-10-30T12:26:36.711Z,12.90
2017-10-30T12:29:04.185Z,13.10
2017-10-30T12:31:31.660Z,7.60
2017-10-30T12:33:59.161Z,11.20
2017-10-30T12:36:26.623Z,11.33
2017-10-30T12:38:54.128Z,11.20
2017-10-30T12:41:21.591Z,10.17
2017-10-30T12:43:49.075Z,14.70
2017-10-30T12:46:17.327Z,8.60
2017-10-30T12:48:44.813Z,7.25
2017-10-30T12:51:12.281Z,14.90
2017-10-30T12:53:39.774Z,5.13
2017-10-30T12:56:07.246Z,7.63
2017-10-30T12:58:34.750Z,12.23
2017-10-30T13:01:02.240Z,8.40
2017-10-30T13:03:29.733Z,9.07
2017-10-30T13:05:57.983Z,5.07
2017-10-30T13:08:25.480Z,12.40
2017-10-30T13:10:53.725Z,12.07
2017-10-30T13:13:21.206Z,10.57
2017-10-30T13:15:48.691Z,9.93
2017-10-30T13:18:16.169Z,7.63
2017-10-30T13:20:43.643Z,9.73
2017-10-30T13:23:11.135Z,10.60
2017-10-30T13:25:38.611Z,12.87
2017-10-30T13:28:06.133Z,12.30
2017-10-30T13:30:33.602Z,12.10
2017-10-30T13:33:01.083Z,15.70
2017-10-30T13:35:30.415Z,12.70
2017-10-30T13:37:57.888Z,9.98
2017-10-30T13:40:25.380Z,11.87
2017-10-30T13:42:52.860Z,11.83
2017-10-30T13:45:20.360Z,11.93
2017-10-30T13:47:47.820Z,6.33
2017-10-30T13:50:15.308Z,4.23
2017-10-30T13:52:42.785Z,16.40
2017-10-30T13:55:11.033Z,8.48
2017-10-30T13:57:38.497Z,7.20
2017-10-30T14:00:07.504Z,5.90
2017-10-30T14:02:35.753Z,10.52
2017-10-30T14:05:03.256Z,6.68
2017-10-30T14:07:30.776Z,8.23
2017-10-30T14:09:58.277Z,9.00
2017-10-30T14:12:25.762Z,11.33
2017-10-30T14:14:53.243Z,13.67
2017-10-30T14:17:20.709Z,7.67
2017-10-30T14:19:49.692Z,13.73
2017-10-30T14:22:17.192Z,8.07
2017-10-30T14:24:45.466Z,10.05
2017-10-30T14:27:14.520Z,5.65
2017-10-30T14:29:42.029Z,9.60
2017-10-30T14:32:09.500Z,15.67
2017-10-30T14:34:36.966Z,7.13
2017-10-30T14:37:04.478Z,17.80
2017-10-30T14:39:32.735Z,5.00
2017-10-30T14:42:00.213Z,4.73
2017-10-30T14:44:28.466Z,6.97
2017-10-30T14:46:55.973Z,5.67
2017-10-30T14:49:23.466Z,11.35
2017-10-30T14:51:50.953Z,10.50
2017-10-30T14:54:18.443Z,6.77
2017-10-30T14:56:45.933Z,10.30
2017-10-30T14:59:13.406Z,7.83
2017-10-30T15:01:41.667Z,5.67
2017-10-30T15:04:09.173Z,7.80
2017-10-30T15:06:37.416Z,10.95
2017-10-30T15:09:04.886Z,22.10
2017-10-30T15:11:33.178Z,5.12
2017-10-30T15:14:00.685Z,20.80
2017-10-30T15:16:28.181Z,16.77
2017-10-30T15:18:55.654Z,14.40
2017-10-30T15:21:23.910Z,12.07
2017-10-30T15:23:51.372Z,9.77
2017-10-30T15:26:18.884Z,15.33
2017-10-30T15:28:46.361Z,10.93
2017-10-30T15:31:13.842Z,7.97
2017-10-30T15:33:41.315Z,7.72
2017-10-30T15:36:08.821Z,15.83
2017-10-30T15:38:36.929Z,11.93
2017-10-30T15:41:04.548Z,11.53
2017-10-30T15:43:32.041Z,9.00
2017-10-30T15:46:00.133Z,15.83
2017-10-30T15:48:29.172Z,16.87
2017-10-30T15:50:57.513Z,23.73
2017-10-30T15:53:24.993Z,23.27
2017-10-30T15:55:52.468Z,10.90
2017-10-30T15:58:19.954Z,11.00
2017-10-30T16:00:47.430Z,12.67
2017-10-30T16:03:14.921Z,8.45
2017-10-30T16:05:43.148Z,11.97
2017-10-30T16:08:10.655Z,11.67
2017-10-30T16:10:38.901Z,10.93
2017-10-30T16:13:06.384Z,16.33
2017-10-30T16:15:34.641Z,6.57
2017-10-30T16:18:02.125Z,6.80
2017-10-30T16:20:29.601Z,10.73
2017-10-30T16:22:57.109Z,13.00
2017-10-30T16:25:24.589Z,11.87
2017-10-30T16:27:53.256Z,10.03
2017-10-30T16:30:20.754Z,8.70
2017-10-30T16:32:48.223Z,9.10
2017-10-30T16:35:16.088Z,5.83
2017-10-30T16:37:43.561Z,11.50
2017-10-30T16:40:11.062Z,9.30
2017-10-30T16:42:39.313Z,10.23
2017-10-30T16:45:06.799Z,9.60
2017-10-30T16:47:35.037Z,12.27
2017-10-30T16:50:03.415Z,9.47
2017-10-30T16:52:30.879Z,7.17
2017-10-30T16:54:58.376Z,10.90
2017-10-30T16:57:26.629Z,6.63
2017-10-30T16:59:54.114Z,7.70
2017-10-30T17:02:23.356Z,9.02
2017-10-30T17:04:50.858Z,5.17
2017-10-30T17:07:19.112Z,13.87
2017-10-30T17:09:46.575Z,7.70
2017-10-30T17:12:14.051Z,8.37
2017-10-30T17:14:42.303Z,11.00
2017-10-30T17:17:09.788Z,8.97
2017-10-30T17:19:38.032Z,11.43
2017-10-30T17:22:05.514Z,15.47
2017-10-30T17:24:33.854Z,16.55
2017-10-30T17:27:01.338Z,18.60
2017-10-30T17:29:28.849Z,28.07
2017-10-30T17:31:56.327Z,28.87
2017-10-30T17:34:24.702Z,45.93
2017-10-30T17:36:52.185Z,58.47
2017-10-30T17:39:20.440Z,65.20
2017-10-30T17:41:47.970Z,53.33
2017-10-30T17:44:15.454Z,45.67
2017-10-30T17:46:42.944Z,32.20
2017-10-30T17:49:10.430Z,29.37
2017-10-30T17:51:37.952Z,28.20
2017-10-30T17:54:05.425Z,27.70
2017-10-30T17:56:33.613Z,24.30
2017-10-30T17:59:01.858Z,24.53
2017-10-30T18:01:29.350Z,21.73
2017-10-30T18:03:57.586Z,24.30
2017-10-30T18:06:25.104Z,29.33
2017-10-30T18:08:52.585Z,24.37
2017-10-30T18:11:20.086Z,20.67
2017-10-30T18:13:48.324Z,25.23
2017-10-30T18:16:15.818Z,25.57
2017-10-30T18:18:43.310Z,24.27
2017-10-30T18:21:11.574Z,17.60
2017-10-30T18:23:39.051Z,24.70
2017-10-30T18:26:06.528Z,24.47
2017-10-30T18:28:34.020Z,25.73
2017-10-30T18:31:01.517Z,21.05
2017-10-30T18:33:29.003Z,19.90
2017-10-30T18:35:56.504Z,21.23
2017-10-30T18:38:24.746Z,26.07
2017-10-30T18:40:52.257Z,26.93
2017-10-30T18:43:19.766Z,23.30
2017-10-30T18:45:47.232Z,24.10
2017-10-30T18:48:14.721Z,22.20
2017-10-30T18:50:42.964Z,21.13
2017-10-30T18:53:10.472Z,23.98
2017-10-30T18:55:37.956Z,24.20
2017-10-30T18:58:05.462Z,25.50
2017-10-30T19:00:33.708Z,19.37
2017-10-30T19:03:01.203Z,27.07
2017-10-30T19:05:29.436Z,25.83
2017-10-30T19:07:57.025Z,31.77
2017-10-30T19:10:24.625Z,28.03
2017-10-30T19:12:52.113Z,26.07
2017-10-30T19:15:19.589Z,25.17
2017-10-30T19:17:47.070Z,29.53
2017-10-30T19:20:15.322Z,26.90
2017-10-30T19:22:42.828Z,29.53
2017-10-30T19:25:10.309Z,31.27
2017-10-30T19:27:37.801Z,27.83
2017-10-30T19:30:05.285Z,31.50
2017-10-30T19:32:34.376Z,35.97
2017-10-30T19:35:02.614Z,27.73
2017-10-30T19:37:30.103Z,34.93
2017-10-30T19:39:58.341Z,26.50
2017-10-30T19:42:25.844Z,29.30
2017-10-30T19:44:54.092Z,24.43
2017-10-30T19:47:21.576Z,23.75
2017-10-30T19:49:49.824Z,27.67
2017-10-30T19:52:17.329Z,15.70
2017-10-30T19:54:44.796Z,17.20
2017-10-30T19:57:12.300Z,18.23
2017-10-30T19:59:39.882Z,19.03
2017-10-30T20:02:08.130Z,15.47
2017-10-30T20:04:35.612Z,23.80
2017-10-30T20:07:09.460Z,16.97
2017-10-30T20:09:42.717Z,21.70
2017-10-30T20:12:17.660Z,30.70
2017-10-30T20:14:45.914Z,27.67
2017-10-30T20:17:13.424Z,15.40
2017-10-30T20:19:40.909Z,18.33
2017-10-30T20:22:08.397Z,17.13
2017-10-30T20:24:36.687Z,20.40
2017-10-30T20:27:04.932Z,18.27
2017-10-30T20:29:33.225Z,18.87
2017-10-30T20:32:01.471Z,20.43
2017-10-30T20:34:28.944Z,12.37
2017-10-30T20:36:56.429Z,12.20
2017-10-30T20:39:25.793Z,12.40
2017-10-30T20:41:53.273Z,13.23
2017-10-30T20:44:20.767Z,14.63
2017-10-30T20:46:48.246Z,16.17
2017-10-30T20:49:15.737Z,12.30
2017-10-30T20:51:43.980Z,13.70
2017-10-30T20:54:11.507Z,16.77
2017-10-30T20:56:38.981Z,17.03
2017-10-30T20:59:06.485Z,15.07
2017-10-30T21:01:33.964Z,14.07
2017-10-30T21:04:02.201Z,13.48
2017-10-30T21:06:30.066Z,23.20
2017-10-30T21:08:57.545Z,11.27
2017-10-30T21:11:25.021Z,9.30
2017-10-30T21:13:53.279Z,11.80
2017-10-30T21:16:20.777Z,12.03
2017-10-30T21:18:48.266Z,15.00
2017-10-30T21:21:15.756Z,7.13
2017-10-30T21:23:44.011Z,6.50
2017-10-30T21:26:11.484Z,8.43
2017-10-30T21:28:38.948Z,8.40
2017-10-30T21:31:06.433Z,9.80
2017-10-30T21:33:33.902Z,11.83
2017-10-30T21:36:02.533Z,17.73
2017-10-30T21:38:30.019Z,15.80
2017-10-30T21:40:58.274Z,12.20
2017-10-30T21:43:25.736Z,17.43
2017-10-30T21:45:53.215Z,12.93
2017-10-30T21:48:21.465Z,14.57
2017-10-30T21:50:49.746Z,21.97
2017-10-30T21:53:17.989Z,15.40
2017-10-30T21:55:45.488Z,18.73
2017-10-30T21:58:12.955Z,16.57
2017-10-30T22:00:41.212Z,18.73
2017-10-30T22:03:09.558Z,14.13
2017-10-30T22:05:37.067Z,16.93
2017-10-30T22:08:05.321Z,10.37
2017-10-30T22:10:32.818Z,11.77
2017-10-30T22:13:00.293Z,13.37
2017-10-30T22:15:27.780Z,14.67
2017-10-30T22:17:55.256Z,12.37
2017-10-30T22:20:22.749Z,15.90
2017-10-30T22:22:50.236Z,10.43
2017-10-30T22:25:17.714Z,10.20
2017-10-30T22:27:45.191Z,14.43
2017-10-30T22:30:12.654Z,8.70
2017-10-30T22:32:40.933Z,10.50
2017-10-30T22:35:09.196Z,9.00
2017-10-30T22:37:36.681Z,8.40
2017-10-30T22:40:04.925Z,9.47
2017-10-30T22:42:32.422Z,11.90
2017-10-30T22:45:00.366Z,13.50
2017-10-30T22:47:28.627Z,15.27
2017-10-30T22:49:56.859Z,13.23
2017-10-30T22:52:25.174Z,15.03
2017-10-30T22:54:53.455Z,10.63
2017-10-30T22:57:21.751Z,11.20
2017-10-30T22:59:49.239Z,8.40
2017-10-30T23:02:16.759Z,13.90
2017-10-30T23:04:44.233Z,7.53
2017-10-30T23:07:12.477Z,8.90
2017-10-30T23:09:39.964Z,10.77
2017-10-30T23:12:08.222Z,10.33
2017-10-30T23:14:35.698Z,9.60
2017-10-30T23:17:03.957Z,9.40
2017-10-30T23:19:31.441Z,12.20
2017-10-30T23:21:59.671Z,9.20
2017-10-30T23:24:27.166Z,10.13
2017-10-30T23:26:55.399Z,8.85
2017-10-30T23:29:22.888Z,8.10
2017-10-30T23:31:50.352Z,9.10
2017-10-30T23:34:18.592Z,10.83
2017-10-30T23:36:46.078Z,17.20
2017-10-30T23:39:13.557Z,36.20
2017-10-30T23:41:41.050Z,12.90
2017-10-30T23:44:08.538Z,16.00
2017-10-30T23:46:36.018Z,19.00
2017-10-30T23:49:04.275Z,18.65
2017-10-30T23:51:31.745Z,14.73
2017-10-30T23:54:00.005Z,17.63
2017-10-30T23:56:27.483Z,11.23
2017-10-30T23:58:55.738Z,9.20
